createdAt,value
2017-12-20T00:02:05.396Z,22.43
2017-12-20T00:04:33.640Z,29.25
2017-12-20T00:07:08.665Z,32.20
2017-12-20T00:09:36.982Z,28.02
2017-12-20T00:12:05.625Z,27.52
2017-12-20T00:14:34.080Z,29.50
2017-12-20T00:17:08.125Z,28.55
2017-12-20T00:19:36.443Z,32.90
2017-12-20T00:22:05.978Z,31.75
2017-12-20T00:24:34.453Z,34.90
2017-12-20T00:27:06.607Z,33.57
2017-12-20T00:29:34.929Z,34.45
2017-12-20T00:32:06.315Z,33.28
2017-12-20T00:34:34.586Z,30.57
2017-12-20T00:37:06.757Z,32.90
2017-12-20T00:39:35.370Z,29.90
2017-12-20T00:42:05.502Z,42.47
2017-12-20T00:44:33.800Z,34.03
2017-12-20T00:47:05.947Z,36.97
2017-12-20T00:49:34.243Z,32.10
2017-12-20T00:52:05.667Z,37.30
2017-12-20T00:54:33.943Z,34.17
2017-12-20T00:57:08.976Z,36.93
2017-12-20T00:59:37.247Z,34.80
2017-12-20T01:02:05.550Z,39.83
2017-12-20T01:04:34.445Z,37.30
2017-12-20T01:07:06.260Z,41.90
2017-12-20T01:09:34.508Z,43.20
2017-12-20T01:12:05.827Z,29.30
2017-12-20T01:14:34.359Z,33.67
2017-12-20T01:17:05.610Z,33.37
2017-12-20T01:19:33.917Z,34.87
2017-12-20T01:22:08.940Z,32.50
2017-12-20T01:24:37.233Z,37.97
2017-12-20T01:27:05.591Z,36.77
2017-12-20T01:29:33.894Z,33.83
2017-12-20T01:32:09.163Z,36.70
2017-12-20T01:34:37.462Z,36.60
2017-12-20T01:37:06.857Z,30.80
2017-12-20T01:39:35.133Z,35.70
2017-12-20T01:42:06.614Z,44.03
2017-12-20T01:44:35.101Z,43.20
2017-12-20T01:47:07.959Z,40.37
2017-12-20T01:49:36.948Z,34.75
2017-12-20T01:52:06.054Z,36.80
2017-12-20T01:54:34.324Z,31.77
2017-12-20T01:57:06.482Z,33.93
2017-12-20T01:59:34.825Z,33.20
2017-12-20T02:02:05.825Z,37.17
2017-12-20T02:04:34.113Z,41.63
2017-12-20T02:07:05.969Z,37.63
2017-12-20T02:09:34.232Z,36.20
2017-12-20T02:12:05.776Z,34.13
2017-12-20T02:14:34.062Z,35.57
2017-12-20T02:17:05.437Z,28.70
2017-12-20T02:19:33.733Z,31.15
2017-12-20T02:22:05.917Z,28.73
2017-12-20T02:24:34.234Z,29.77
2017-12-20T02:27:08.261Z,29.63
2017-12-20T02:29:36.553Z,29.20
2017-12-20T02:32:06.074Z,31.17
2017-12-20T02:34:34.382Z,25.90
2017-12-20T02:37:05.563Z,26.83
2017-12-20T02:39:33.873Z,25.55
2017-12-20T02:42:07.829Z,26.23
2017-12-20T02:44:36.132Z,26.50
2017-12-20T02:47:05.808Z,24.37
2017-12-20T02:49:34.109Z,23.00
2017-12-20T02:52:07.108Z,26.70
2017-12-20T02:54:35.394Z,24.97
2017-12-20T02:57:07.009Z,21.53
2017-12-20T02:59:35.321Z,19.27
2017-12-20T03:02:06.952Z,23.80
2017-12-20T03:04:35.227Z,21.93
2017-12-20T03:07:06.476Z,21.52
2017-12-20T03:09:35.525Z,21.25
2017-12-20T03:12:07.412Z,22.23
2017-12-20T03:14:35.701Z,23.00
2017-12-20T03:17:05.591Z,22.13
2017-12-20T03:19:33.844Z,21.20
2017-12-20T03:22:05.706Z,20.85
2017-12-20T03:24:34.476Z,21.48
2017-12-20T03:27:09.721Z,20.20
2017-12-20T03:29:38.007Z,24.20
2017-12-20T03:32:06.310Z,20.70
2017-12-20T03:34:34.625Z,19.85
2017-12-20T03:37:08.678Z,20.13
2017-12-20T03:39:36.980Z,18.50
2017-12-20T03:42:06.685Z,23.57
2017-12-20T03:44:34.980Z,21.10
2017-12-20T03:47:08.105Z,19.20
2017-12-20T03:49:36.405Z,21.90
2017-12-20T03:52:07.165Z,21.90
2017-12-20T12:15:09.457Z,106.20
2017-12-20T12:17:38.102Z,115.07
2017-12-20T12:20:06.425Z,110.20
2017-12-20T12:22:34.715Z,134.13
2017-12-20T12:25:03.156Z,119.77
2017-12-20T12:27:31.433Z,139.60
2017-12-20T12:29:59.748Z,112.77
2017-12-20T12:32:28.047Z,116.97
2017-12-20T12:34:56.345Z,109.23
2017-12-20T12:37:24.628Z,110.63
2017-12-20T12:39:52.930Z,207.37
2017-12-20T12:42:21.218Z,145.80
2017-12-20T12:44:49.825Z,138.93
2017-12-20T12:47:18.224Z,127.57
2017-12-20T12:49:46.503Z,116.83
2017-12-20T12:52:14.793Z,147.53
2017-12-20T12:54:43.097Z,136.73
2017-12-20T12:57:11.416Z,96.27
2017-12-20T12:59:39.920Z,99.33
2017-12-20T13:02:08.225Z,120.77
2017-12-20T13:04:36.508Z,100.67
2017-12-20T13:07:04.846Z,120.77
2017-12-20T13:09:33.136Z,117.13
2017-12-20T13:12:01.437Z,107.63
2017-12-20T13:14:29.713Z,105.03
2017-12-20T13:16:58.277Z,88.50
2017-12-20T13:19:26.750Z,107.77
2017-12-20T13:21:55.048Z,84.97
2017-12-20T13:24:23.358Z,112.77
2017-12-20T13:26:51.663Z,109.07
2017-12-20T13:29:19.960Z,98.17
2017-12-20T13:31:48.287Z,100.23
2017-12-20T13:34:16.576Z,116.23
2017-12-20T13:36:44.894Z,157.30
2017-12-20T13:39:13.182Z,136.40
2017-12-20T13:41:41.472Z,166.20
2017-12-20T13:44:10.064Z,116.67
2017-12-20T13:46:38.357Z,106.40
2017-12-20T13:49:06.677Z,113.23
2017-12-20T13:51:34.973Z,125.50
2017-12-20T13:54:03.494Z,170.63
2017-12-20T13:56:32.142Z,105.43
2017-12-20T13:59:00.897Z,129.87
2017-12-20T14:01:29.598Z,98.37
2017-12-20T14:04:01.263Z,113.50
2017-12-20T14:06:29.761Z,141.60
2017-12-20T14:09:00.018Z,100.20
2017-12-20T14:11:28.316Z,85.97
2017-12-20T14:13:59.265Z,102.93
2017-12-20T14:16:27.950Z,111.17
2017-12-20T14:18:59.232Z,98.43
2017-12-20T14:21:27.726Z,97.93
2017-12-20T14:24:02.901Z,85.77
2017-12-20T14:26:31.190Z,103.03
2017-12-20T14:28:59.472Z,94.90
2017-12-20T14:31:27.786Z,122.53
2017-12-20T14:34:01.770Z,100.10
2017-12-20T14:36:30.102Z,103.50
2017-12-20T14:39:00.141Z,117.07
2017-12-20T14:41:28.625Z,96.13
2017-12-20T14:43:59.936Z,118.27
2017-12-20T14:46:28.237Z,112.43
2017-12-20T14:48:59.451Z,120.00
2017-12-20T14:51:27.763Z,93.03
2017-12-20T14:54:00.445Z,88.93
2017-12-20T14:56:28.749Z,128.60
2017-12-20T14:59:00.288Z,112.93
2017-12-20T15:01:29.061Z,107.33
2017-12-20T15:04:01.024Z,144.63
2017-12-20T15:06:29.298Z,124.53
2017-12-20T15:08:59.702Z,104.30
2017-12-20T15:11:27.988Z,100.50
2017-12-20T15:14:00.134Z,105.87
2017-12-20T15:16:28.577Z,108.53
2017-12-20T15:19:00.128Z,114.37
2017-12-20T15:21:28.416Z,166.27
2017-12-20T15:23:59.420Z,112.93
2017-12-20T15:26:27.705Z,124.37
2017-12-20T15:28:59.879Z,108.50
2017-12-20T15:31:28.195Z,149.20
2017-12-20T15:33:58.342Z,129.13
2017-12-20T15:36:26.672Z,95.47
2017-12-20T15:38:58.436Z,91.40
2017-12-20T15:41:26.722Z,109.57
2017-12-20T15:44:00.925Z,141.03
2017-12-20T15:46:29.247Z,127.73
2017-12-20T15:48:58.766Z,134.30
2017-12-20T15:51:27.668Z,126.13
2017-12-20T15:54:00.049Z,102.30
2017-12-20T15:56:28.617Z,87.63
2017-12-20T15:58:58.633Z,94.67
2017-12-20T16:01:26.901Z,88.67
2017-12-20T16:04:00.901Z,104.30
2017-12-20T16:06:29.230Z,83.80
2017-12-20T16:08:58.917Z,106.63
2017-12-20T16:11:27.500Z,87.17
2017-12-20T16:13:59.156Z,89.87
2017-12-20T16:16:27.431Z,87.13
2017-12-20T16:18:58.748Z,91.33
2017-12-20T16:21:26.988Z,103.07
2017-12-20T16:23:58.581Z,87.70
2017-12-20T16:26:26.893Z,113.83
2017-12-20T16:29:00.841Z,86.33
2017-12-20T16:31:29.316Z,83.33
2017-12-20T16:33:59.006Z,95.00
2017-12-20T16:36:28.069Z,82.63
2017-12-20T16:38:59.795Z,67.57
2017-12-20T16:41:28.067Z,82.13
2017-12-20T16:43:59.847Z,89.27
2017-12-20T16:46:28.130Z,72.77
2017-12-20T16:48:59.481Z,67.13
2017-12-20T16:51:27.823Z,75.70
2017-12-20T16:53:59.414Z,72.57
2017-12-20T16:56:27.727Z,83.33
2017-12-20T16:59:00.231Z,98.83
2017-12-20T17:01:28.707Z,116.20
2017-12-20T17:03:58.256Z,77.77
2017-12-20T17:06:26.555Z,111.83
2017-12-20T17:08:59.389Z,85.30
2017-12-20T17:11:27.744Z,71.87
2017-12-20T17:13:59.312Z,58.53
2017-12-20T17:16:27.749Z,181.90
2017-12-20T17:18:59.371Z,63.93
2017-12-20T17:21:27.764Z,103.00
2017-12-20T17:24:00.156Z,70.43
2017-12-20T17:26:28.455Z,89.97
2017-12-20T17:28:59.673Z,85.23
2017-12-20T17:31:28.274Z,85.00
2017-12-20T17:34:00.112Z,66.43
2017-12-20T17:36:28.405Z,92.73
2017-12-20T17:38:58.301Z,93.20
2017-12-20T17:41:26.857Z,68.93
2017-12-20T17:44:00.828Z,64.63
2017-12-20T17:46:29.168Z,70.23
2017-12-20T17:48:58.629Z,60.77
2017-12-20T17:51:26.905Z,68.53
2017-12-20T17:53:58.316Z,134.27
2017-12-20T17:56:26.605Z,84.23
2017-12-20T17:58:58.072Z,58.03
2017-12-20T18:01:26.349Z,58.80
2017-12-20T18:03:57.799Z,89.73
2017-12-20T18:06:26.066Z,53.57
2017-12-20T18:08:58.318Z,81.83
2017-12-20T18:11:26.607Z,76.40
2017-12-20T18:13:58.200Z,70.53
2017-12-20T18:16:26.493Z,68.53
2017-12-20T18:18:57.791Z,107.37
2017-12-20T18:21:26.099Z,76.03
2017-12-20T18:23:57.813Z,76.83
2017-12-20T18:26:26.100Z,62.57
2017-12-20T18:28:58.262Z,78.93
2017-12-20T18:31:26.590Z,66.67
2017-12-20T18:33:58.576Z,76.27
2017-12-20T18:36:26.857Z,98.87
2017-12-20T18:38:58.805Z,72.63
2017-12-20T18:41:27.201Z,59.37
2017-12-20T18:43:59.176Z,93.73
2017-12-20T18:46:27.455Z,71.27
2017-12-20T18:48:59.800Z,63.23
2017-12-20T18:51:28.109Z,76.40
2017-12-20T18:54:00.441Z,75.33
2017-12-20T18:56:28.716Z,70.43
2017-12-20T18:58:59.482Z,115.80
2017-12-20T19:01:27.798Z,69.43
2017-12-20T19:03:59.725Z,95.03
2017-12-20T19:06:28.200Z,165.10
2017-12-20T19:08:58.418Z,153.10
2017-12-20T19:11:26.695Z,443.53
2017-12-20T19:14:01.861Z,154.37
2017-12-20T19:16:30.272Z,203.87
2017-12-20T19:18:58.521Z,69.47
2017-12-20T19:21:26.832Z,157.10
2017-12-20T19:23:58.890Z,222.47
2017-12-20T19:26:27.223Z,69.13
2017-12-20T19:28:58.305Z,94.40
2017-12-20T19:31:26.630Z,115.73
2017-12-20T19:33:59.090Z,168.07
2017-12-20T19:36:27.431Z,486.53
2017-12-20T19:38:58.741Z,411.43
2017-12-20T19:41:27.045Z,109.33
2017-12-20T19:43:58.527Z,162.27
2017-12-20T19:46:26.805Z,71.73
2017-12-20T19:48:59.923Z,170.23
2017-12-20T19:51:28.214Z,188.00
2017-12-20T19:54:00.029Z,67.80
2017-12-20T19:56:28.326Z,92.53
2017-12-20T19:58:58.288Z,111.20
2017-12-20T20:01:26.623Z,48.73
2017-12-20T20:03:58.273Z,58.10
2017-12-20T20:06:26.497Z,54.60
2017-12-20T20:08:58.407Z,81.30
2017-12-20T20:11:26.692Z,88.90
2017-12-20T20:14:01.872Z,71.93
2017-12-20T20:16:30.176Z,73.77
2017-12-20T20:18:58.457Z,53.23
2017-12-20T20:21:26.751Z,48.50
2017-12-20T20:24:01.761Z,55.47
2017-12-20T20:26:30.060Z,54.73
2017-12-20T20:28:58.354Z,107.83
2017-12-20T20:31:27.313Z,49.10
2017-12-20T20:33:58.357Z,82.53
2017-12-20T20:36:26.867Z,38.97
2017-12-20T20:39:00.893Z,48.63
2017-12-20T20:41:29.184Z,65.07
2017-12-20T20:44:02.633Z,56.27
2017-12-20T20:46:30.932Z,42.80
2017-12-20T20:48:59.258Z,99.50
2017-12-20T20:51:27.538Z,48.73
2017-12-20T20:53:58.331Z,45.67
2017-12-20T20:56:26.609Z,44.67
2017-12-20T20:59:01.898Z,52.13
2017-12-20T21:01:30.174Z,58.43
2017-12-20T21:03:58.482Z,41.17
2017-12-20T21:06:26.772Z,62.13
2017-12-20T21:09:01.810Z,85.87
2017-12-20T21:11:30.086Z,45.53
2017-12-20T21:13:58.465Z,40.43
2017-12-20T21:16:26.780Z,56.47
2017-12-20T21:18:58.168Z,38.27
2017-12-20T21:21:26.465Z,38.87
2017-12-20T21:24:01.451Z,33.00
2017-12-20T21:26:29.756Z,47.53
2017-12-20T21:28:58.531Z,48.93
2017-12-20T21:31:26.839Z,39.10
2017-12-20T21:33:59.468Z,35.23
2017-12-20T21:36:28.155Z,39.27
2017-12-20T21:38:58.506Z,36.87
2017-12-20T21:41:26.800Z,54.03
2017-12-20T21:44:01.969Z,35.87
2017-12-20T21:46:30.524Z,40.60
2017-12-20T21:48:58.812Z,39.47
2017-12-20T21:51:27.101Z,45.53
2017-12-20T21:53:58.418Z,49.30
2017-12-20T21:56:26.710Z,70.80
2017-12-20T21:58:58.681Z,62.90
2017-12-20T22:01:27.000Z,43.63
2017-12-20T22:03:59.566Z,37.50
2017-12-20T22:06:27.846Z,39.80
2017-12-20T22:08:59.995Z,33.30
2017-12-20T22:11:28.383Z,42.23
2017-12-20T22:13:58.758Z,46.23
2017-12-20T22:16:27.046Z,31.07
2017-12-20T22:18:59.035Z,38.23
2017-12-20T22:21:27.341Z,28.43
2017-12-20T22:23:58.986Z,38.17
2017-12-20T22:26:27.290Z,31.03
2017-12-20T22:28:58.837Z,28.53
2017-12-20T22:31:27.135Z,30.23
2017-12-20T22:33:58.483Z,29.97
2017-12-20T22:36:26.791Z,30.63
2017-12-20T22:38:58.843Z,28.83
2017-12-20T22:41:28.164Z,31.80
2017-12-20T22:44:00.756Z,29.60
2017-12-20T22:46:29.856Z,29.03
2017-12-20T22:48:58.738Z,33.37
2017-12-20T22:51:27.352Z,41.90
2017-12-20T22:53:58.706Z,38.33
2017-12-20T22:56:26.994Z,27.07
2017-12-20T22:58:59.139Z,31.07
2017-12-20T23:01:27.502Z,26.93
2017-12-20T23:04:01.777Z,32.07
2017-12-20T23:06:30.093Z,36.53
2017-12-20T23:08:59.393Z,33.33
2017-12-20T23:11:28.195Z,29.20
2017-12-20T23:13:59.582Z,35.27
2017-12-20T23:16:27.874Z,25.23
2017-12-20T23:18:59.738Z,25.57
2017-12-20T23:21:28.825Z,27.80
2017-12-20T23:24:00.365Z,25.00
2017-12-20T23:26:28.668Z,37.30
2017-12-20T23:29:00.208Z,27.63
2017-12-20T23:31:28.488Z,58.87
2017-12-20T23:33:59.960Z,33.40
2017-12-20T23:36:28.238Z,55.00
2017-12-20T23:39:00.342Z,24.93
2017-12-20T23:41:28.638Z,27.93
2017-12-20T23:44:00.373Z,26.03
2017-12-20T23:46:28.670Z,27.97
2017-12-20T23:49:00.595Z,25.33
2017-12-20T23:51:29.502Z,28.67
2017-12-20T23:53:59.223Z,41.93
2017-12-20T23:56:27.545Z,23.03
2017-12-20T23:58:59.450Z,26.37
